createdAt,value
2024-01-07T00:00:56.830Z,1012.87
2024-01-07T00:01:56.756Z,1012.89
2024-01-07T00:02:56.716Z,1012.86
2024-01-07T00:03:56.705Z,1012.92
2024-01-07T00:04:56.724Z,1012.90
2024-01-07T00:05:56.714Z,1012.91
2024-01-07T00:06:56.690Z,1012.91
2024-01-07T00:07:56.647Z,1012.93
2024-01-07T00:08:56.633Z,1012.94
2024-01-07T00:09:56.681Z,1012.87
2024-01-07T00:10:57.961Z,1012.89
2024-01-07T00:11:56.633Z,1012.92
2024-01-07T00:12:56.599Z,1012.91
2024-01-07T00:13:56.589Z,1012.90
2024-01-07T00:14:56.590Z,1012.90
2024-01-07T00:15:56.589Z,1012.90
2024-01-07T00:16:56.551Z,1012.95
2024-01-07T00:17:56.628Z,1012.94
2024-01-07T00:18:56.669Z,1012.98
2024-01-07T00:19:56.568Z,1012.97
2024-01-07T00:20:56.527Z,1013.01
2024-01-07T00:21:56.522Z,1012.98
2024-01-07T00:22:56.485Z,1012.99
2024-01-07T00:23:56.493Z,1013.04
2024-01-07T00:24:56.490Z,1013.01
2024-01-07T00:25:56.464Z,1013.02
2024-01-07T00:26:56.442Z,1013.02
2024-01-07T00:27:56.618Z,1013.04
2024-01-07T00:28:56.431Z,1013.04
2024-01-07T00:29:56.416Z,1013.09
2024-01-07T00:30:56.494Z,1013.05
2024-01-07T00:31:56.491Z,1013.04
2024-01-07T00:32:56.486Z,1013.04
2024-01-07T00:33:56.441Z,1013.06
2024-01-07T00:34:56.622Z,1013.08
2024-01-07T00:35:56.348Z,1013.04
2024-01-07T00:36:56.358Z,1013.09
2024-01-07T00:37:56.341Z,1013.06
2024-01-07T00:38:56.320Z,1013.07
2024-01-07T00:39:56.425Z,1013.08
2024-01-07T00:40:56.292Z,1013.07
2024-01-07T00:41:56.289Z,1013.06
2024-01-07T00:42:56.312Z,1013.10
2024-01-07T00:43:56.273Z,1013.11
2024-01-07T00:44:56.251Z,1013.12
2024-01-07T00:45:56.275Z,1013.15
2024-01-07T00:46:56.245Z,1013.12
2024-01-07T00:47:56.475Z,1013.12
2024-01-07T00:48:56.333Z,1013.16
2024-01-07T00:49:56.214Z,1013.14
2024-01-07T00:50:56.182Z,1013.13
2024-01-07T00:51:56.219Z,1013.15
2024-01-07T00:52:56.172Z,1013.14
2024-01-07T00:53:56.163Z,1013.15
2024-01-07T00:54:56.212Z,1013.12
2024-01-07T00:55:56.136Z,1013.20
2024-01-07T00:56:56.133Z,1013.17
2024-01-07T00:57:56.150Z,1013.17
2024-01-07T00:58:56.107Z,1013.20
2024-01-07T00:59:56.096Z,1013.19
2024-01-07T01:00:56.233Z,1013.21
2024-01-07T01:01:56.130Z,1013.22
2024-01-07T01:02:56.062Z,1013.22
2024-01-07T01:03:56.151Z,1013.21
2024-01-07T01:04:56.258Z,1013.17
2024-01-07T01:05:56.057Z,1013.22
2024-01-07T01:06:56.049Z,1013.19
2024-01-07T01:07:56.009Z,1013.23
2024-01-07T01:08:56.005Z,1013.22
2024-01-07T01:09:56.030Z,1013.27
2024-01-07T01:10:55.990Z,1013.26
2024-01-07T01:11:55.976Z,1013.29
2024-01-07T01:12:55.980Z,1013.30
2024-01-07T01:13:55.942Z,1013.32
2024-01-07T01:14:55.942Z,1013.35
2024-01-07T01:15:55.968Z,1013.35
2024-01-07T01:16:55.916Z,1013.36
2024-01-07T01:17:55.940Z,1013.37
2024-01-07T01:18:55.967Z,1013.34
2024-01-07T01:19:55.948Z,1013.37
2024-01-07T01:20:55.869Z,1013.35
2024-01-07T01:21:55.876Z,1013.39
2024-01-07T01:22:55.849Z,1013.44
2024-01-07T01:23:55.926Z,1013.42
2024-01-07T01:24:55.872Z,1013.42
2024-01-07T01:25:55.816Z,1013.40
2024-01-07T01:26:55.805Z,1013.43
2024-01-07T01:27:55.822Z,1013.42
2024-01-07T01:28:55.804Z,1013.48
2024-01-07T01:29:55.774Z,1013.45
2024-01-07T01:30:55.868Z,1013.46
2024-01-07T01:31:55.801Z,1013.50
2024-01-07T01:32:55.800Z,1013.50
2024-01-07T01:33:55.989Z,1013.54
2024-01-07T01:34:55.744Z,1013.56
2024-01-07T01:35:55.713Z,1013.58
2024-01-07T01:36:55.729Z,1013.57
2024-01-07T01:37:55.714Z,1013.62
2024-01-07T01:38:55.693Z,1013.62
2024-01-07T01:39:55.693Z,1013.58
2024-01-07T01:40:55.663Z,1013.60
2024-01-07T01:41:55.656Z,1013.62
2024-01-07T01:42:55.686Z,1013.66
2024-01-07T01:43:55.635Z,1013.67
2024-01-07T01:44:55.607Z,1013.69
2024-01-07T01:45:55.653Z,1013.65
2024-01-07T01:46:55.595Z,1013.69
2024-01-07T01:47:55.678Z,1013.68
2024-01-07T01:48:55.613Z,1013.68
2024-01-07T01:49:55.648Z,1013.68
2024-01-07T01:50:55.544Z,1013.72
2024-01-07T01:51:55.694Z,1013.72
2024-01-07T01:52:55.540Z,1013.75
2024-01-07T01:53:55.521Z,1013.70
2024-01-07T01:54:55.520Z,1013.74
2024-01-07T01:55:55.492Z,1013.76
2024-01-07T01:56:55.498Z,1013.68
2024-01-07T01:57:55.500Z,1013.71
2024-01-07T01:58:55.476Z,1013.72
2024-01-07T01:59:55.447Z,1013.73
2024-01-07T02:00:55.494Z,1013.69
2024-01-07T02:01:55.507Z,1013.72
2024-01-07T02:02:55.456Z,1013.69
2024-01-07T02:03:55.502Z,1013.75
2024-01-07T02:04:55.461Z,1013.73
2024-01-07T02:05:55.396Z,1013.72
2024-01-07T02:06:55.402Z,1013.70
2024-01-07T02:07:55.371Z,1013.73
2024-01-07T02:08:55.356Z,1013.76
2024-01-07T02:09:55.391Z,1013.76
2024-01-07T02:10:55.349Z,1013.78
2024-01-07T02:11:55.339Z,1013.76
2024-01-07T02:12:55.333Z,1013.79
2024-01-07T02:13:55.309Z,1013.76
2024-01-07T02:14:55.307Z,1013.78
2024-01-07T02:15:55.345Z,1013.77
2024-01-07T02:16:55.271Z,1013.84
2024-01-07T02:17:55.284Z,1013.79
2024-01-07T02:18:55.384Z,1013.88
2024-01-07T02:19:55.327Z,1013.86
2024-01-07T02:20:55.243Z,1013.83
2024-01-07T02:21:55.259Z,1013.84
2024-01-07T02:22:55.215Z,1013.78
2024-01-07T02:23:55.201Z,1013.80
2024-01-07T02:24:55.223Z,1013.83
2024-01-07T02:25:55.170Z,1013.79
2024-01-07T02:26:55.188Z,1013.83
2024-01-07T02:27:55.189Z,1013.90
2024-01-07T02:28:55.146Z,1013.92
2024-01-07T02:29:55.149Z,1013.89
2024-01-07T02:30:55.214Z,1013.94
2024-01-07T02:31:55.110Z,1013.92
2024-01-07T02:32:55.256Z,1013.92
2024-01-07T02:33:55.240Z,1013.97
2024-01-07T02:34:55.185Z,1013.99
2024-01-07T02:35:55.086Z,1013.97
2024-01-07T02:36:55.122Z,1013.94
2024-01-07T02:37:55.047Z,1013.99
2024-01-07T02:38:55.071Z,1013.99
2024-01-07T02:40:00.994Z,1013.98
2024-01-07T02:40:55.026Z,1013.99
2024-01-07T02:41:55.002Z,1013.97
2024-01-07T02:42:55.045Z,1013.96
2024-01-07T02:43:54.995Z,1013.96
2024-01-07T02:44:54.982Z,1013.97
2024-01-07T02:45:55.000Z,1013.94
2024-01-07T02:46:54.956Z,1013.98
2024-01-07T02:47:55.020Z,1013.97
2024-01-07T02:48:55.001Z,1013.99
2024-01-07T02:49:55.126Z,1013.96
2024-01-07T02:50:54.912Z,1014.02
2024-01-07T02:51:54.946Z,1014.05
2024-01-07T02:52:54.902Z,1014.06
2024-01-07T02:53:54.873Z,1014.06
2024-01-07T02:54:54.884Z,1014.08
2024-01-07T02:55:54.861Z,1014.11
2024-01-07T02:56:54.854Z,1014.09
2024-01-07T02:57:54.898Z,1014.16
2024-01-07T02:58:54.825Z,1014.14
2024-01-07T02:59:54.811Z,1014.18
2024-01-07T03:00:54.904Z,1014.16
2024-01-07T03:01:54.833Z,1014.16
2024-01-07T03:02:54.828Z,1014.21
2024-01-07T03:03:54.833Z,1014.22
2024-01-07T03:04:54.762Z,1014.28
2024-01-07T03:05:54.772Z,1014.21
2024-01-07T03:06:54.833Z,1014.25
2024-01-07T03:07:54.735Z,1014.29
2024-01-07T03:08:54.737Z,1014.30
2024-01-07T03:09:54.777Z,1014.25
2024-01-07T03:10:54.706Z,1014.33
2024-01-07T03:11:54.729Z,1014.30
2024-01-07T03:12:54.732Z,1014.33
2024-01-07T03:13:54.663Z,1014.32
2024-01-07T03:14:54.664Z,1014.37
2024-01-07T03:15:54.688Z,1014.37
2024-01-07T03:16:54.641Z,1014.37
2024-01-07T03:17:54.671Z,1014.39
2024-01-07T03:18:54.800Z,1014.39
2024-01-07T03:19:54.644Z,1014.39
2024-01-07T03:20:54.609Z,1014.38
2024-01-07T03:21:54.639Z,1014.41
2024-01-07T03:22:54.583Z,1014.44
2024-01-07T03:23:54.562Z,1014.40
2024-01-07T03:24:54.591Z,1014.41
2024-01-07T03:25:54.559Z,1014.43
2024-01-07T03:26:54.531Z,1014.45
2024-01-07T03:27:54.592Z,1014.36
2024-01-07T03:28:54.524Z,1014.46
2024-01-07T03:29:54.512Z,1014.43
2024-01-07T03:30:54.567Z,1014.46
2024-01-07T03:31:54.521Z,1014.45
2024-01-07T03:32:54.560Z,1014.44
2024-01-07T03:33:54.692Z,1014.45
2024-01-07T03:34:54.520Z,1014.43
2024-01-07T03:35:54.440Z,1014.46
2024-01-07T03:36:54.457Z,1014.47
2024-01-07T03:37:54.413Z,1014.46
2024-01-07T03:38:54.421Z,1014.48
2024-01-07T03:39:54.424Z,1014.49
2024-01-07T03:40:54.386Z,1014.45
2024-01-07T03:41:54.375Z,1014.46
2024-01-07T03:42:54.434Z,1014.45
2024-01-07T03:43:54.490Z,1014.46
2024-01-07T03:44:54.344Z,1014.46
2024-01-07T03:45:54.383Z,1014.49
2024-01-07T03:46:54.323Z,1014.46
2024-01-07T03:47:54.439Z,1014.49
2024-01-07T03:48:54.446Z,1014.50
2024-01-07T03:49:54.291Z,1014.46
2024-01-07T03:50:54.301Z,1014.52
2024-01-07T03:51:54.289Z,1014.52
2024-01-07T03:52:54.271Z,1014.51
2024-01-07T03:53:54.276Z,1014.52
2024-01-07T03:54:54.305Z,1014.49
2024-01-07T03:55:54.226Z,1014.44
2024-01-07T03:56:54.212Z,1014.48
2024-01-07T03:57:54.263Z,1014.53
2024-01-07T03:58:54.196Z,1014.47
2024-01-07T03:59:54.202Z,1014.47
2024-01-07T04:00:54.230Z,1014.53
2024-01-07T04:01:54.175Z,1014.48
2024-01-07T04:02:54.191Z,1014.51
2024-01-07T04:03:54.320Z,1014.46
2024-01-07T04:04:54.126Z,1014.55
2024-01-07T04:05:54.152Z,1014.54
2024-01-07T04:06:54.176Z,1014.56
2024-01-07T04:07:54.095Z,1014.53
2024-01-07T04:08:54.091Z,1014.54
2024-01-07T04:09:54.128Z,1014.58
2024-01-07T04:10:54.091Z,1014.58
2024-01-07T04:11:54.066Z,1014.59
2024-01-07T04:12:54.131Z,1014.63
2024-01-07T04:13:54.037Z,1014.61
2024-01-07T04:14:54.032Z,1014.63
2024-01-07T04:15:54.055Z,1014.62
2024-01-07T04:16:54.013Z,1014.65
2024-01-07T04:17:54.196Z,1014.61
2024-01-07T04:18:54.578Z,1014.60
2024-01-07T04:19:54.085Z,1014.67
2024-01-07T04:20:53.970Z,1014.64
2024-01-07T04:21:53.962Z,1014.66
2024-01-07T04:22:53.931Z,1014.64
2024-01-07T04:23:53.930Z,1014.71
2024-01-07T04:24:53.932Z,1014.68
2024-01-07T04:25:53.919Z,1014.71
2024-01-07T04:26:53.891Z,1014.71
2024-01-07T04:27:53.902Z,1014.76
2024-01-07T04:28:53.893Z,1014.74
2024-01-07T04:29:53.877Z,1014.73
2024-01-07T04:30:53.968Z,1014.81
2024-01-07T04:31:53.907Z,1014.80
2024-01-07T04:32:53.845Z,1014.81
2024-01-07T04:33:53.960Z,1014.80
2024-01-07T04:34:53.928Z,1014.81
2024-01-07T04:35:53.809Z,1014.86
2024-01-07T04:36:53.807Z,1014.83
2024-01-07T04:37:53.775Z,1014.83
2024-01-07T04:38:53.766Z,1014.84
2024-01-07T04:39:53.780Z,1014.82
2024-01-07T04:40:53.745Z,1014.87
2024-01-07T04:41:53.738Z,1014.84
2024-01-07T04:42:53.770Z,1014.90
2024-01-07T04:43:53.735Z,1014.85
2024-01-07T04:44:53.704Z,1014.88
2024-01-07T04:45:53.748Z,1014.88
2024-01-07T04:46:53.681Z,1014.90
2024-01-07T04:47:53.774Z,1014.93
2024-01-07T04:48:53.775Z,1014.94
2024-01-07T04:49:53.737Z,1014.89
2024-01-07T04:50:53.639Z,1014.99
2024-01-07T04:51:53.652Z,1014.98
2024-01-07T04:52:53.615Z,1014.96
2024-01-07T04:53:53.611Z,1014.97
2024-01-07T04:54:53.628Z,1014.98
2024-01-07T04:55:53.579Z,1015.02
2024-01-07T04:56:53.576Z,1015.01
2024-01-07T04:57:53.628Z,1015.06
2024-01-07T04:58:53.560Z,1015.09
2024-01-07T04:59:53.678Z,1015.07
2024-01-07T05:00:53.629Z,1015.07
2024-01-07T05:01:53.551Z,1015.08
2024-01-07T05:02:53.538Z,1015.10
2024-01-07T05:03:53.507Z,1015.09
2024-01-07T05:04:53.486Z,1015.14
2024-01-07T05:05:53.505Z,1015.16
2024-01-07T05:06:53.530Z,1015.15
2024-01-07T05:07:53.466Z,1015.16
2024-01-07T05:08:53.450Z,1015.18
2024-01-07T05:09:53.500Z,1015.17
2024-01-07T05:10:53.436Z,1015.21
2024-01-07T05:11:53.438Z,1015.22
2024-01-07T05:12:53.476Z,1015.24
2024-01-07T05:13:55.244Z,1015.23
2024-01-07T05:14:53.387Z,1015.20
2024-01-07T05:15:53.389Z,1015.26
2024-01-07T05:16:53.372Z,1015.29
2024-01-07T05:17:53.392Z,1015.23
2024-01-07T05:18:53.578Z,1015.32
2024-01-07T05:19:53.640Z,1015.30
2024-01-07T05:20:53.335Z,1015.33
2024-01-07T05:21:53.374Z,1015.34
2024-01-07T05:22:53.317Z,1015.33
2024-01-07T05:23:53.291Z,1015.34
2024-01-07T05:24:53.314Z,1015.29
2024-01-07T05:25:53.276Z,1015.36
2024-01-07T05:26:53.270Z,1015.35
2024-01-07T05:27:53.275Z,1015.33
2024-01-07T05:28:53.237Z,1015.40
2024-01-07T05:29:53.228Z,1015.42
2024-01-07T05:30:53.363Z,1015.45
2024-01-07T05:31:53.245Z,1015.43
2024-01-07T05:32:53.288Z,1015.49
2024-01-07T05:33:53.324Z,1015.49
2024-01-07T05:34:53.261Z,1015.58
2024-01-07T05:35:53.187Z,1015.58
2024-01-07T05:36:53.163Z,1015.57
2024-01-07T05:37:53.155Z,1015.57
2024-01-07T05:38:53.130Z,1015.58
2024-01-07T05:39:53.177Z,1015.57
2024-01-07T05:40:53.115Z,1015.61
2024-01-07T05:41:53.087Z,1015.63
2024-01-07T05:42:53.139Z,1015.58
2024-01-07T05:43:53.074Z,1015.64
2024-01-07T05:44:53.101Z,1015.61
2024-01-07T05:45:53.128Z,1015.69
2024-01-07T05:46:53.057Z,1015.60
2024-01-07T05:47:53.071Z,1015.65
2024-01-07T05:48:53.202Z,1015.65
2024-01-07T05:49:53.309Z,1015.71
2024-01-07T05:50:53.005Z,1015.71
2024-01-07T05:51:53.022Z,1015.72
2024-01-07T05:52:52.983Z,1015.75
2024-01-07T05:53:52.978Z,1015.70
2024-01-07T05:54:52.981Z,1015.75
2024-01-07T05:55:52.950Z,1015.72
2024-01-07T05:56:52.935Z,1015.72
2024-01-07T05:57:52.978Z,1015.76
2024-01-07T05:58:52.932Z,1015.74
2024-01-07T05:59:54.828Z,1015.78
2024-01-07T06:00:52.939Z,1015.76
2024-01-07T06:01:52.914Z,1015.76
2024-01-07T06:02:52.955Z,1015.80
2024-01-07T06:03:52.893Z,1015.78
2024-01-07T06:04:52.929Z,1015.79
2024-01-07T06:05:52.861Z,1015.80
2024-01-07T06:06:54.617Z,1015.83
2024-01-07T06:07:52.913Z,1015.80
2024-01-07T06:08:52.813Z,1015.85
2024-01-07T06:09:52.816Z,1015.81
2024-01-07T06:10:52.783Z,1015.87
2024-01-07T06:11:52.771Z,1015.85
2024-01-07T06:12:52.884Z,1015.89
2024-01-07T06:13:52.764Z,1015.84
2024-01-07T06:14:52.735Z,1015.86
2024-01-07T06:15:52.768Z,1015.86
2024-01-07T06:16:52.721Z,1015.86
2024-01-07T06:17:52.764Z,1015.87
2024-01-07T06:18:52.863Z,1015.89
2024-01-07T06:19:52.816Z,1015.90
2024-01-07T06:20:52.673Z,1015.95
2024-01-07T06:21:52.705Z,1015.95
2024-01-07T06:22:52.671Z,1016.04
2024-01-07T06:23:52.646Z,1016.02
2024-01-07T06:24:52.653Z,1016.02
2024-01-07T06:25:52.622Z,1016.05
2024-01-07T06:26:52.628Z,1016.03
2024-01-07T06:27:52.653Z,1016.04
2024-01-07T06:28:52.587Z,1016.04
2024-01-07T06:29:52.592Z,1016.09
2024-01-07T06:30:52.759Z,1016.11
2024-01-07T06:31:52.689Z,1016.13
2024-01-07T06:32:52.586Z,1016.12
2024-01-07T06:33:52.669Z,1016.14
2024-01-07T06:34:52.563Z,1016.09
2024-01-07T06:35:52.524Z,1016.18
2024-01-07T06:36:52.553Z,1016.23
2024-01-07T06:37:52.505Z,1016.18
2024-01-07T06:38:52.495Z,1016.15
2024-01-07T06:39:52.527Z,1016.22
2024-01-07T06:40:52.513Z,1016.23
2024-01-07T06:41:52.488Z,1016.22
2024-01-07T06:42:52.462Z,1016.27
2024-01-07T06:43:52.463Z,1016.27
2024-01-07T06:44:52.422Z,1016.32
2024-01-07T06:45:52.499Z,1016.34
2024-01-07T06:46:52.398Z,1016.35
2024-01-07T06:47:52.445Z,1016.38
2024-01-07T06:48:52.645Z,1016.41
2024-01-07T06:49:52.466Z,1016.30
2024-01-07T06:50:52.363Z,1016.40
2024-01-07T06:51:52.469Z,1016.39
2024-01-07T06:52:52.339Z,1016.43
2024-01-07T06:53:52.342Z,1016.45
2024-01-07T06:54:52.406Z,1016.45
2024-01-07T06:55:52.321Z,1016.48
2024-01-07T06:56:52.293Z,1016.43
2024-01-07T06:57:52.331Z,1016.50
2024-01-07T06:58:52.271Z,1016.50
2024-01-07T06:59:52.290Z,1016.50
2024-01-07T07:00:52.306Z,1016.51
2024-01-07T07:01:52.426Z,1016.53
2024-01-07T07:02:52.241Z,1016.55
2024-01-07T07:03:52.358Z,1016.53
2024-01-07T07:04:52.393Z,1016.60
2024-01-07T07:05:52.279Z,1016.61
2024-01-07T07:06:52.202Z,1016.62
2024-01-07T07:07:55.527Z,1016.63
2024-01-07T07:08:52.186Z,1016.64
2024-01-07T07:09:52.182Z,1016.68
2024-01-07T07:10:52.162Z,1016.69
2024-01-07T07:11:52.144Z,1016.71
2024-01-07T07:12:52.168Z,1016.71
2024-01-07T07:13:52.128Z,1016.70
2024-01-07T07:14:52.111Z,1016.73
2024-01-07T07:15:52.139Z,1016.71
2024-01-07T07:16:52.096Z,1016.81
2024-01-07T07:17:52.103Z,1016.77
2024-01-07T07:18:52.129Z,1016.84
2024-01-07T07:19:52.150Z,1016.85
2024-01-07T07:20:52.034Z,1016.83
2024-01-07T07:21:52.061Z,1016.87
2024-01-07T07:22:52.029Z,1016.89
2024-01-07T07:23:52.025Z,1016.91
2024-01-07T07:24:52.042Z,1016.97
2024-01-07T07:25:51.992Z,1016.93
2024-01-07T07:26:51.986Z,1016.95
2024-01-07T07:27:52.032Z,1016.99
2024-01-07T07:28:51.969Z,1017.01
2024-01-07T07:29:51.945Z,1017.02
2024-01-07T07:30:52.772Z,1017.03
2024-01-07T07:31:51.966Z,1016.99
2024-01-07T07:32:51.985Z,1017.00
2024-01-07T07:33:52.038Z,1017.02
2024-01-07T07:34:52.099Z,1017.02
2024-01-07T07:35:51.888Z,1017.05
2024-01-07T07:36:51.912Z,1017.03
2024-01-07T07:37:51.880Z,1017.02
2024-01-07T07:38:51.859Z,1017.11
2024-01-07T07:39:52.007Z,1017.10
2024-01-07T07:40:51.829Z,1017.14
2024-01-07T07:41:51.844Z,1017.18
2024-01-07T07:42:51.819Z,1017.18
2024-01-07T07:43:51.814Z,1017.18
2024-01-07T07:44:51.798Z,1017.23
2024-01-07T07:45:51.819Z,1017.18
2024-01-07T07:46:51.780Z,1017.24
2024-01-07T07:47:51.817Z,1017.27
2024-01-07T07:48:51.818Z,1017.32
2024-01-07T07:49:51.955Z,1017.29
2024-01-07T07:50:51.738Z,1017.34
2024-01-07T07:51:51.797Z,1017.38
2024-01-07T07:52:51.704Z,1017.38
2024-01-07T07:53:51.696Z,1017.35
2024-01-07T07:54:51.738Z,1017.40
2024-01-07T07:55:51.694Z,1017.43
2024-01-07T07:56:51.678Z,1017.42
2024-01-07T07:57:51.726Z,1017.48
2024-01-07T07:58:51.642Z,1017.47
2024-01-07T07:59:51.636Z,1017.50
2024-01-07T08:00:51.770Z,1017.49
2024-01-07T08:01:51.857Z,1017.54
2024-01-07T08:02:51.628Z,1017.54
2024-01-07T08:03:51.686Z,1017.57
2024-01-07T08:04:51.682Z,1017.59
2024-01-07T08:05:51.630Z,1017.60
2024-01-07T08:06:51.600Z,1017.58
2024-01-07T08:07:51.574Z,1017.60
2024-01-07T08:08:51.538Z,1017.61
2024-01-07T08:09:51.555Z,1017.66
2024-01-07T08:10:51.517Z,1017.65
2024-01-07T08:11:51.508Z,1017.68
2024-01-07T08:12:51.572Z,1017.69
2024-01-07T08:13:51.488Z,1017.71
2024-01-07T08:14:51.482Z,1017.84
2024-01-07T08:15:51.523Z,1017.80
2024-01-07T08:16:51.460Z,1017.81
2024-01-07T08:17:51.483Z,1017.84
2024-01-07T08:18:51.516Z,1017.79
2024-01-07T08:19:51.539Z,1017.84
2024-01-07T08:20:51.419Z,1017.87
2024-01-07T08:21:51.440Z,1017.85
2024-01-07T08:22:51.458Z,1017.91
2024-01-07T08:23:51.395Z,1017.87
2024-01-07T08:24:51.460Z,1017.92
2024-01-07T08:25:51.356Z,1017.91
2024-01-07T08:26:51.340Z,1017.97
2024-01-07T08:27:52.862Z,1017.96
2024-01-07T08:28:51.357Z,1017.93
2024-01-07T08:29:51.319Z,1017.94
2024-01-07T08:30:51.398Z,1018.00
2024-01-07T08:31:51.452Z,1017.97
2024-01-07T08:32:51.432Z,1017.99
2024-01-07T08:33:51.392Z,1017.98
2024-01-07T08:34:51.449Z,1018.01
2024-01-07T08:35:51.248Z,1018.03
2024-01-07T08:36:51.287Z,1017.97
2024-01-07T08:37:51.252Z,1018.03
2024-01-07T08:38:51.209Z,1018.05
2024-01-07T08:39:51.264Z,1018.05
2024-01-07T08:40:51.201Z,1018.08
2024-01-07T08:41:51.184Z,1018.11
2024-01-07T08:42:51.247Z,1018.08
2024-01-07T08:43:51.170Z,1018.16
2024-01-07T08:44:51.150Z,1018.16
2024-01-07T08:45:51.162Z,1018.18
2024-01-07T08:46:51.147Z,1018.18
2024-01-07T08:47:51.224Z,1018.19
2024-01-07T08:48:51.313Z,1018.22
2024-01-07T08:49:51.165Z,1018.18
2024-01-07T08:50:51.118Z,1018.23
2024-01-07T08:51:51.117Z,1018.28
2024-01-07T08:52:51.064Z,1018.27
2024-01-07T08:53:51.069Z,1018.25
2024-01-07T08:54:51.088Z,1018.22
2024-01-07T08:55:51.055Z,1018.28
2024-01-07T08:56:51.036Z,1018.25
2024-01-07T08:57:51.050Z,1018.32
2024-01-07T08:58:51.008Z,1018.34
2024-01-07T08:59:51.022Z,1018.31
2024-01-07T09:00:51.099Z,1018.40
2024-01-07T09:01:51.083Z,1018.34
2024-01-07T09:02:50.972Z,1018.36
2024-01-07T09:03:51.051Z,1018.36
2024-01-07T09:04:50.943Z,1018.39
2024-01-07T09:05:50.970Z,1018.44
2024-01-07T09:06:50.927Z,1018.39
2024-01-07T09:07:50.915Z,1018.39
2024-01-07T09:08:50.918Z,1018.36
2024-01-07T09:09:50.917Z,1018.44
2024-01-07T09:10:50.898Z,1018.40
2024-01-07T09:11:50.878Z,1018.39
2024-01-07T09:12:50.920Z,1018.38
2024-01-07T09:13:50.846Z,1018.47
2024-01-07T09:14:50.870Z,1018.41
2024-01-07T09:15:50.858Z,1018.42
2024-01-07T09:16:50.813Z,1018.41
2024-01-07T09:17:50.910Z,1018.41
2024-01-07T09:18:50.958Z,1018.38
2024-01-07T09:19:50.859Z,1018.40
2024-01-07T09:20:50.772Z,1018.46
2024-01-07T09:21:50.815Z,1018.48
2024-01-07T09:22:50.789Z,1018.45
2024-01-07T09:23:50.760Z,1018.49
2024-01-07T09:24:53.903Z,1018.50
2024-01-07T09:25:50.724Z,1018.51
2024-01-07T09:26:50.731Z,1018.55
2024-01-07T09:27:50.719Z,1018.59
2024-01-07T09:28:50.700Z,1018.56
2024-01-07T09:29:50.694Z,1018.55
2024-01-07T09:30:50.872Z,1018.59
2024-01-07T09:31:50.734Z,1018.62
2024-01-07T09:32:50.686Z,1018.62
2024-01-07T09:33:50.777Z,1018.71
2024-01-07T09:34:50.711Z,1018.68
2024-01-07T09:35:50.618Z,1018.65
2024-01-07T09:36:50.627Z,1018.62
2024-01-07T09:37:50.618Z,1018.65
2024-01-07T09:38:50.593Z,1018.73
2024-01-07T09:39:50.667Z,1018.67
2024-01-07T09:40:50.565Z,1018.72
2024-01-07T09:41:50.554Z,1018.71
2024-01-07T09:42:50.645Z,1018.72
2024-01-07T09:43:50.537Z,1018.70
2024-01-07T09:44:50.516Z,1018.71
2024-01-07T09:45:50.532Z,1018.71
2024-01-07T09:46:50.495Z,1018.73
2024-01-07T09:47:50.607Z,1018.74
2024-01-07T09:48:50.576Z,1018.73
2024-01-07T09:49:50.494Z,1018.75
2024-01-07T09:50:50.462Z,1018.78
2024-01-07T09:51:50.555Z,1018.80
2024-01-07T09:52:50.449Z,1018.82
2024-01-07T09:53:50.425Z,1018.78
2024-01-07T09:54:50.455Z,1018.80
2024-01-07T09:55:50.409Z,1018.88
2024-01-07T09:56:50.427Z,1018.86
2024-01-07T09:57:50.426Z,1018.85
2024-01-07T09:58:50.364Z,1018.86
2024-01-07T09:59:50.364Z,1018.87
2024-01-07T10:00:50.407Z,1018.89
2024-01-07T10:01:51.681Z,1018.94
2024-01-07T10:02:50.329Z,1018.92
2024-01-07T10:03:50.419Z,1019.01
2024-01-07T10:04:50.391Z,1018.91
2024-01-07T10:05:50.306Z,1018.98
2024-01-07T10:06:50.321Z,1018.92
2024-01-07T10:07:50.277Z,1018.99
2024-01-07T10:08:50.264Z,1018.89
2024-01-07T10:09:50.275Z,1018.95
2024-01-07T10:10:50.250Z,1019.04
2024-01-07T10:11:50.241Z,1018.97
2024-01-07T10:12:50.299Z,1018.99
2024-01-07T10:13:50.213Z,1019.03
2024-01-07T10:14:50.199Z,1019.01
2024-01-07T10:15:50.224Z,1019.05
2024-01-07T10:16:50.175Z,1018.96
2024-01-07T10:17:50.221Z,1019.06
2024-01-07T10:18:50.316Z,1018.98
2024-01-07T10:19:50.240Z,1019.06
2024-01-07T10:20:50.155Z,1019.09
2024-01-07T10:21:50.151Z,1019.11
2024-01-07T10:22:50.108Z,1019.11
2024-01-07T10:23:50.158Z,1019.09
2024-01-07T10:24:50.142Z,1019.08
2024-01-07T10:25:50.086Z,1019.06
2024-01-07T10:26:50.118Z,1019.11
2024-01-07T10:27:50.085Z,1019.05
2024-01-07T10:28:50.051Z,1019.00
2024-01-07T10:29:50.044Z,1019.07
2024-01-07T10:30:50.262Z,1019.04
2024-01-07T10:31:50.180Z,1019.04
2024-01-07T10:32:50.152Z,1019.03
2024-01-07T10:33:50.134Z,1019.02
2024-01-07T10:34:50.238Z,1019.04
2024-01-07T10:35:50.053Z,1019.03
2024-01-07T10:36:50.095Z,1019.10
2024-01-07T10:37:50.051Z,1019.14
2024-01-07T10:38:49.970Z,1019.12
2024-01-07T10:39:50.040Z,1019.14
2024-01-07T10:40:49.923Z,1019.15
2024-01-07T10:41:49.997Z,1019.22
2024-01-07T10:42:49.940Z,1019.19
2024-01-07T10:43:50.401Z,1019.17
2024-01-07T10:44:49.920Z,1019.20
2024-01-07T10:45:50.000Z,1019.17
2024-01-07T10:46:49.941Z,1019.12
2024-01-07T10:47:49.899Z,1019.14
2024-01-07T10:48:50.099Z,1019.20
2024-01-07T10:49:49.875Z,1019.15
2024-01-07T10:50:49.827Z,1019.17
2024-01-07T10:51:49.845Z,1019.17
2024-01-07T10:52:49.828Z,1019.15
2024-01-07T10:53:49.792Z,1019.16
2024-01-07T10:54:49.821Z,1019.16
2024-01-07T10:55:49.769Z,1019.21
2024-01-07T10:56:49.785Z,1019.24
2024-01-07T10:57:49.780Z,1019.23
2024-01-07T10:58:49.735Z,1019.28
2024-01-07T10:59:49.723Z,1019.25
2024-01-07T11:00:49.841Z,1019.25
2024-01-07T11:01:49.836Z,1019.27
2024-01-07T11:02:49.708Z,1019.25
2024-01-07T11:03:49.760Z,1019.24
2024-01-07T11:04:49.699Z,1019.27
2024-01-07T11:05:49.709Z,1019.29
2024-01-07T11:06:49.690Z,1019.30
2024-01-07T11:07:49.658Z,1019.32
2024-01-07T11:08:49.628Z,1019.31
2024-01-07T11:09:49.658Z,1019.30
2024-01-07T11:10:53.059Z,1019.28
2024-01-07T11:11:49.608Z,1019.31
2024-01-07T11:12:49.664Z,1019.30
2024-01-07T11:13:49.569Z,1019.28
2024-01-07T11:14:49.565Z,1019.34
2024-01-07T11:15:49.644Z,1019.38
2024-01-07T11:16:49.548Z,1019.32
2024-01-07T11:17:49.571Z,1019.33
2024-01-07T11:18:49.598Z,1019.35
2024-01-07T11:19:49.611Z,1019.40
2024-01-07T11:20:49.527Z,1019.36
2024-01-07T11:21:49.567Z,1019.43
2024-01-07T11:22:49.492Z,1019.40
2024-01-07T11:23:49.469Z,1019.38
2024-01-07T11:24:49.489Z,1019.36
2024-01-07T11:25:49.480Z,1019.45
2024-01-07T11:26:49.435Z,1019.53
2024-01-07T11:27:49.462Z,1019.47
2024-01-07T11:28:49.414Z,1019.48
2024-01-07T11:29:49.408Z,1019.48
2024-01-07T11:30:49.471Z,1019.54
2024-01-07T11:31:49.451Z,1019.50
2024-01-07T11:32:52.345Z,1019.58
2024-01-07T11:33:49.625Z,1019.57
2024-01-07T11:34:49.453Z,1019.64
2024-01-07T11:35:49.368Z,1019.61
2024-01-07T11:36:49.383Z,1019.54
2024-01-07T11:37:49.321Z,1019.52
2024-01-07T11:38:53.388Z,1019.57
2024-01-07T11:39:49.405Z,1019.59
2024-01-07T11:40:49.293Z,1019.61
2024-01-07T11:41:49.273Z,1019.60
2024-01-07T11:42:49.274Z,1019.51
2024-01-07T11:43:49.253Z,1019.63
2024-01-07T11:44:49.260Z,1019.61
2024-01-07T11:45:49.297Z,1019.57
2024-01-07T11:46:49.241Z,1019.62
2024-01-07T11:47:49.310Z,1019.57
2024-01-07T11:48:49.270Z,1019.64
2024-01-07T11:49:49.297Z,1019.65
2024-01-07T11:50:50.518Z,1019.67
2024-01-07T11:51:49.197Z,1019.68
2024-01-07T11:52:49.172Z,1019.72
2024-01-07T11:53:49.178Z,1019.68
2024-01-07T11:54:49.226Z,1019.64
2024-01-07T11:55:49.133Z,1019.64
2024-01-07T11:56:49.122Z,1019.67
2024-01-07T11:57:49.135Z,1019.64
2024-01-07T11:58:49.108Z,1019.64
2024-01-07T11:59:49.102Z,1019.64
2024-01-07T12:00:49.174Z,1019.64
2024-01-07T12:01:49.189Z,1019.62
2024-01-07T12:02:49.079Z,1019.66
2024-01-07T12:03:49.178Z,1019.66
2024-01-07T12:04:49.121Z,1019.67
2024-01-07T12:05:49.174Z,1019.64